KSNS/SNS METAR and TAF weather

Enter ICAO airport designator
Station Type Date Time Source
KSNS METAR 2021/07/28 04:53 UTC NOAA

KSNS 280453Z AUTO 32007KT 10SM OVC008 16/13 A3003 RMK AO2 SLP178 T01560128 $


Station Type Date Time Source
KSNS Decoded METAR 2021/07/28 04:53 UTC NOAA

SALINAS MUNICIPAL AIRPORT, CA, United States (KSNS) 36-40N 121-36W 30M
Jul 28, 2021 - 12:53 AM EDT / 2021.07.28 0453 UTC
Wind: from the NW (320 degrees) at 8 MPH (7 KT):0
Visibility: 10 mile(s):0
Sky conditions: overcast
Temperature: 60.1 F (15.6 C)
Dew Point: 55.0 F (12.8 C)
Relative Humidity: 83%
Pressure (altimeter): 30.03 in. Hg (1016 hPa)
ob: KSNS 280453Z AUTO 32007KT 10SM OVC008 16/13 A3003 RMK AO2 SLP178 T01560128
cycle: 5

Station Type Date Time Source
KSNS TAF 2021/07/28 04:48 UTC NOAA

TAF
AMD KSNS 280345Z 2804/2824 32008KT P6SM FEW007
TEMPO 2804/2805 BKN007
FM280500 32007KT P6SM BKN007
FM280700 32003KT 6SM BR OVC004
FM281500 VRB03KT P6SM OVC007
FM281800 33005KT P6SM FEW010
FM282100 29011KT P6SM SKC

Example: see airport list